createdAt,value
2022-10-04T00:02:19.423Z,11.69
2022-10-04T00:04:54.163Z,11.69
2022-10-04T00:07:25.997Z,11.76
2022-10-04T00:09:57.538Z,11.81
2022-10-04T00:12:27.672Z,11.85
2022-10-04T00:14:58.288Z,11.85
2022-10-04T00:17:29.881Z,11.86
2022-10-04T00:20:02.013Z,11.86
2022-10-04T00:22:31.816Z,11.86
2022-10-04T00:25:32.781Z,11.83
2022-10-04T00:28:45.320Z,11.85
2022-10-04T00:31:20.086Z,11.85
2022-10-04T00:33:50.436Z,11.84
2022-10-04T00:36:43.824Z,11.84
2022-10-04T00:39:27.874Z,11.86
2022-10-04T00:42:01.213Z,11.88
2022-10-04T00:44:32.117Z,11.85
2022-10-04T00:47:01.989Z,11.86
2022-10-04T00:49:32.752Z,11.95
2022-10-04T00:52:05.806Z,11.94
2022-10-04T00:54:36.607Z,11.92
2022-10-04T00:57:07.462Z,11.95
2022-10-04T00:59:38.119Z,11.96
2022-10-04T01:02:08.868Z,12.02
2022-10-04T01:04:46.489Z,12.01
2022-10-04T01:07:22.644Z,12.03
2022-10-04T01:09:54.110Z,12.04
2022-10-04T01:12:30.125Z,12.04
2022-10-04T01:15:03.128Z,12.02
2022-10-04T01:17:32.569Z,12.01
2022-10-04T01:20:03.790Z,12.03
2022-10-04T01:22:39.083Z,12.00
2022-10-04T01:25:09.423Z,11.99
2022-10-04T01:27:44.193Z,11.97
2022-10-04T01:30:14.611Z,12.01
2022-10-04T01:32:45.353Z,12.06
2022-10-04T01:35:15.937Z,12.12
2022-10-04T01:37:47.961Z,12.12
2022-10-04T01:40:17.869Z,12.11
2022-10-04T01:42:48.496Z,12.12
2022-10-04T01:45:19.873Z,12.03
2022-10-04T01:47:51.740Z,11.91
2022-10-04T01:50:23.135Z,11.89
2022-10-04T01:52:56.776Z,11.87
2022-10-04T01:55:27.799Z,11.92
2022-10-04T01:57:59.995Z,11.89
2022-10-04T02:00:29.682Z,11.85
2022-10-04T02:03:00.538Z,11.69
2022-10-04T02:05:31.497Z,11.60
2022-10-04T02:08:04.997Z,11.57
2022-10-04T02:10:39.778Z,11.68
2022-10-04T02:13:12.742Z,11.69
2022-10-04T02:15:42.247Z,11.60
2022-10-04T02:18:12.729Z,11.70
2022-10-04T02:20:42.292Z,11.75
2022-10-04T02:23:14.529Z,11.80
2022-10-04T02:25:44.079Z,11.87
2022-10-04T02:28:14.241Z,11.90
2022-10-04T02:30:44.814Z,11.92
2022-10-04T02:33:11.686Z,11.97
2022-10-04T02:35:46.223Z,11.96
2022-10-04T02:38:22.217Z,11.60
2022-10-04T02:40:53.469Z,10.98
2022-10-04T02:43:24.275Z,10.77
2022-10-04T02:45:55.489Z,10.72
2022-10-04T02:48:38.006Z,10.52
2022-10-04T02:51:18.795Z,10.59
2022-10-04T02:54:02.270Z,10.87
2022-10-04T02:56:32.908Z,11.03
2022-10-04T02:59:03.868Z,10.92
2022-10-04T03:01:44.094Z,10.91
2022-10-04T03:04:15.126Z,10.88
2022-10-04T03:06:45.733Z,10.96
2022-10-04T03:09:17.781Z,10.81
2022-10-04T03:11:47.237Z,10.46
2022-10-04T03:14:17.797Z,10.38
2022-10-04T03:16:47.798Z,10.04
2022-10-04T03:19:17.820Z,10.19
2022-10-04T03:21:48.858Z,10.31
2022-10-04T03:24:22.719Z,10.49
2022-10-04T03:26:53.225Z,10.56
2022-10-04T03:29:22.970Z,10.69
2022-10-04T03:31:53.252Z,10.72
2022-10-04T03:34:23.544Z,10.80
2022-10-04T03:36:54.005Z,10.87
2022-10-04T03:39:30.407Z,10.89
2022-10-04T03:42:00.334Z,10.91
2022-10-04T03:44:29.748Z,10.92
2022-10-04T03:46:59.180Z,10.80
2022-10-04T03:49:32.764Z,10.73
2022-10-04T03:52:02.221Z,10.78
2022-10-04T03:54:34.289Z,10.56
2022-10-04T03:57:03.760Z,10.20
2022-10-04T03:59:33.197Z,10.18
2022-10-04T04:02:09.630Z,10.27
2022-10-04T04:04:44.104Z,10.39
2022-10-04T04:07:15.127Z,10.54
2022-10-04T04:09:48.715Z,10.51
2022-10-04T04:12:20.154Z,10.60
2022-10-04T04:14:50.892Z,10.38
2022-10-04T04:17:35.958Z,10.16
2022-10-04T04:20:07.885Z,10.35
2022-10-04T04:22:37.870Z,10.50
2022-10-04T04:25:11.644Z,10.68
2022-10-04T04:27:41.542Z,10.70
2022-10-04T04:30:11.721Z,10.73
2022-10-04T04:32:43.159Z,10.37
2022-10-04T04:35:24.284Z,10.16
2022-10-04T04:38:16.137Z,10.06
2022-10-04T04:40:48.183Z,10.18
2022-10-04T04:43:20.573Z,10.40
2022-10-04T04:46:08.531Z,10.58
2022-10-04T04:48:40.230Z,10.53
2022-10-04T04:51:10.103Z,10.54
2022-10-04T04:53:40.141Z,10.59
2022-10-04T04:56:18.204Z,10.52
2022-10-04T04:58:48.999Z,10.53
2022-10-04T05:01:21.044Z,10.49
2022-10-04T05:04:02.917Z,10.43
2022-10-04T05:06:33.081Z,10.41
2022-10-04T05:09:02.521Z,10.16
2022-10-04T05:11:35.881Z,10.18
2022-10-04T05:14:06.867Z,10.07
2022-10-04T05:16:40.128Z,10.16
2022-10-04T05:19:11.628Z,10.24
2022-10-04T05:21:42.925Z,9.88
2022-10-04T05:24:13.705Z,9.50
2022-10-04T05:26:45.766Z,9.41
2022-10-04T05:29:19.222Z,9.47
2022-10-04T05:31:50.648Z,9.52
2022-10-04T05:34:25.777Z,9.80
2022-10-04T05:37:05.877Z,9.70
2022-10-04T05:39:37.884Z,9.53
2022-10-04T05:42:14.964Z,9.45
2022-10-04T05:44:49.099Z,9.42
2022-10-04T05:47:22.878Z,9.30
2022-10-04T05:49:53.196Z,9.37
2022-10-04T05:52:30.566Z,9.44
2022-10-04T05:55:19.201Z,9.64
2022-10-04T05:57:57.202Z,9.58
2022-10-04T06:00:27.804Z,9.85
2022-10-04T06:03:11.611Z,10.00
2022-10-04T06:05:51.772Z,10.06
2022-10-04T06:08:32.715Z,10.16
2022-10-04T06:11:09.399Z,10.12
2022-10-04T06:14:00.863Z,9.97
2022-10-04T06:16:36.202Z,9.71
2022-10-04T06:19:31.496Z,9.71
2022-10-04T06:22:11.898Z,9.77
2022-10-04T06:24:42.322Z,9.78
2022-10-04T06:27:13.768Z,9.58
2022-10-04T06:29:46.435Z,9.55
2022-10-04T06:32:28.206Z,9.75
2022-10-04T06:35:12.454Z,9.90
2022-10-04T06:38:02.982Z,9.94
2022-10-04T06:40:59.660Z,10.19
2022-10-04T06:43:37.569Z,10.34
2022-10-04T06:46:14.007Z,10.47
2022-10-04T06:49:02.414Z,10.55
2022-10-04T06:51:44.866Z,10.54
2022-10-04T06:54:21.743Z,10.69
2022-10-04T06:57:17.301Z,10.78
2022-10-04T06:59:58.949Z,10.93
2022-10-04T07:02:33.110Z,10.83
2022-10-04T07:05:09.399Z,10.80
2022-10-04T07:07:40.441Z,10.41
2022-10-04T07:10:29.678Z,10.29
2022-10-04T07:13:07.473Z,10.60
2022-10-04T07:15:46.880Z,10.62
2022-10-04T07:18:26.958Z,10.51
2022-10-04T07:21:02.820Z,10.69
2022-10-04T07:23:34.237Z,10.79
2022-10-04T07:26:04.923Z,11.03
2022-10-04T07:28:48.562Z,11.18
2022-10-04T07:31:26.416Z,11.31
2022-10-04T07:34:01.015Z,11.42
2022-10-04T07:36:32.427Z,11.48
2022-10-04T07:39:03.642Z,11.54
2022-10-04T07:41:33.935Z,11.61
2022-10-04T07:44:05.401Z,11.52
2022-10-04T07:46:46.573Z,11.52
2022-10-04T07:49:19.902Z,11.62
2022-10-04T07:52:01.277Z,11.69
2022-10-04T07:54:35.637Z,11.67
2022-10-04T07:57:08.178Z,11.55
2022-10-04T07:59:42.144Z,11.65
2022-10-04T08:02:21.175Z,11.72
2022-10-04T08:04:57.348Z,11.61
2022-10-04T08:07:28.810Z,11.76
2022-10-04T08:10:02.883Z,11.74
2022-10-04T08:12:37.411Z,11.52
2022-10-04T08:15:20.153Z,11.68
2022-10-04T08:17:56.192Z,11.47
2022-10-04T08:20:36.335Z,11.06
2022-10-04T08:23:26.600Z,11.04
2022-10-04T08:25:59.756Z,11.46
2022-10-04T08:28:45.453Z,11.61
2022-10-04T08:31:21.525Z,11.99
2022-10-04T08:34:09.614Z,12.32
2022-10-04T08:36:54.314Z,12.46
2022-10-04T08:39:31.128Z,11.93
2022-10-04T08:42:20.551Z,11.68
2022-10-04T08:45:13.382Z,11.41
2022-10-04T08:48:24.804Z,11.21
2022-10-04T08:51:21.955Z,11.47
2022-10-04T08:54:26.089Z,11.86
2022-10-04T08:57:27.072Z,12.10
2022-10-04T09:00:16.653Z,12.24
2022-10-04T09:03:16.605Z,12.39
2022-10-04T09:06:01.903Z,12.56
2022-10-04T09:08:56.325Z,12.60
2022-10-04T09:11:47.147Z,12.51
2022-10-04T09:14:33.507Z,12.96
2022-10-04T09:17:09.009Z,13.12
2022-10-04T09:19:44.365Z,13.17
2022-10-04T09:22:21.078Z,13.35
2022-10-04T09:25:11.768Z,13.66
2022-10-04T09:27:55.348Z,14.05
2022-10-04T09:30:32.103Z,14.24
2022-10-04T09:33:13.825Z,14.75
2022-10-04T09:36:03.053Z,15.03
2022-10-04T09:39:29.892Z,14.99
2022-10-04T09:42:10.734Z,15.07
2022-10-04T09:45:09.268Z,15.23
2022-10-04T09:47:48.489Z,15.14
2022-10-04T09:50:54.863Z,15.08
2022-10-04T09:53:35.744Z,15.45
2022-10-04T09:56:18.588Z,15.13
2022-10-04T09:59:27.093Z,15.22
2022-10-04T10:02:29.180Z,15.29
2022-10-04T10:05:10.321Z,15.48
2022-10-04T10:07:41.775Z,15.68
2022-10-04T10:10:31.125Z,15.30
2022-10-04T10:13:45.637Z,15.58
2022-10-04T10:16:35.909Z,16.08
2022-10-04T10:19:46.924Z,15.70
2022-10-04T10:22:31.272Z,15.56
2022-10-04T10:25:13.573Z,16.00
2022-10-04T10:27:56.785Z,16.44
2022-10-04T10:30:28.160Z,16.51
2022-10-04T10:33:23.213Z,16.25
2022-10-04T10:36:36.349Z,16.11
2022-10-04T10:39:21.511Z,16.36
2022-10-04T10:42:14.805Z,15.89
2022-10-04T10:44:56.410Z,16.29
2022-10-04T10:47:33.752Z,16.60
2022-10-04T10:50:09.648Z,16.50
2022-10-04T10:53:04.305Z,15.90
2022-10-04T10:56:16.062Z,15.47
2022-10-04T10:59:13.991Z,16.11
2022-10-04T11:02:04.981Z,16.67
2022-10-04T11:04:51.503Z,16.69
2022-10-04T11:07:37.278Z,16.55
2022-10-04T11:10:27.377Z,16.44
2022-10-04T11:13:05.573Z,16.95
2022-10-04T11:16:07.805Z,17.66
2022-10-04T11:19:00.668Z,17.68
2022-10-04T11:21:44.527Z,17.55
2022-10-04T11:25:00.418Z,17.61
2022-10-04T11:27:33.770Z,17.98
2022-10-04T11:30:11.568Z,18.23
2022-10-04T11:33:09.624Z,18.29
2022-10-04T11:35:50.906Z,18.78
2022-10-04T11:38:29.540Z,19.08
2022-10-04T11:41:07.830Z,19.15
2022-10-04T11:43:46.558Z,18.55
2022-10-04T11:46:21.330Z,17.94
2022-10-04T11:49:00.500Z,17.74
2022-10-04T11:51:52.474Z,18.09
2022-10-04T11:54:57.068Z,18.74
2022-10-04T11:57:33.892Z,18.17
2022-10-04T12:00:07.589Z,18.35
2022-10-04T12:03:05.679Z,18.71
2022-10-04T12:06:03.995Z,18.94
2022-10-04T12:08:36.100Z,18.81
2022-10-04T12:11:53.082Z,19.01
2022-10-04T12:14:28.024Z,18.69
2022-10-04T12:17:08.998Z,18.63
2022-10-04T12:20:12.361Z,18.99
2022-10-04T12:23:02.563Z,19.29
2022-10-04T12:25:53.749Z,19.20
2022-10-04T12:28:26.159Z,19.32
2022-10-04T12:31:16.513Z,19.40
2022-10-04T12:33:48.321Z,19.54
2022-10-04T12:36:38.649Z,19.57
2022-10-04T12:39:28.571Z,18.31
2022-10-04T12:42:04.885Z,18.32
2022-10-04T12:44:42.268Z,18.28
2022-10-04T12:47:38.295Z,19.04
2022-10-04T12:50:10.556Z,19.17
2022-10-04T12:52:44.277Z,18.92
2022-10-04T12:55:23.437Z,19.45
2022-10-04T12:57:53.564Z,19.92
2022-10-04T13:00:23.549Z,20.30
2022-10-04T13:03:11.618Z,20.30
2022-10-04T13:05:45.394Z,20.22
2022-10-04T13:08:22.876Z,19.59
2022-10-04T13:11:08.596Z,19.70
2022-10-04T13:13:49.866Z,19.67
2022-10-04T13:19:16.346Z,19.52
2022-10-04T13:22:15.659Z,19.20
2022-10-04T13:24:58.210Z,19.05
2022-10-04T13:27:41.338Z,19.07
2022-10-04T13:30:20.433Z,18.81
2022-10-04T13:32:53.986Z,19.16
2022-10-04T13:35:26.351Z,19.15
2022-10-04T13:38:15.295Z,19.37
2022-10-04T13:40:54.924Z,19.37
2022-10-04T13:43:56.889Z,19.56
2022-10-04T13:46:31.876Z,20.00
2022-10-04T13:49:08.513Z,19.88
2022-10-04T13:51:45.755Z,19.75
2022-10-04T13:54:33.960Z,20.06
2022-10-04T13:57:09.512Z,20.07
2022-10-04T13:59:45.256Z,20.01
2022-10-04T14:02:44.792Z,20.16
2022-10-04T14:05:40.506Z,20.48
2022-10-04T14:08:44.325Z,19.82
2022-10-04T14:11:58.520Z,19.58
2022-10-04T14:14:58.889Z,20.14
2022-10-04T14:17:54.640Z,19.71
2022-10-04T14:20:55.426Z,19.24
2022-10-04T14:23:37.314Z,19.55
2022-10-04T14:26:51.917Z,19.24
2022-10-04T14:29:40.263Z,19.62
2022-10-04T14:32:45.908Z,19.78
2022-10-04T14:35:16.076Z,19.81
2022-10-04T14:38:00.169Z,19.67
2022-10-04T14:40:55.319Z,19.59
2022-10-04T14:43:54.757Z,20.04
2022-10-04T14:46:26.065Z,19.94
2022-10-04T14:49:05.385Z,20.39
2022-10-04T14:51:43.978Z,20.52
2022-10-04T14:54:15.457Z,20.14
2022-10-04T14:57:00.735Z,19.63
2022-10-04T14:59:48.203Z,20.10
2022-10-04T15:02:41.791Z,20.22
2022-10-04T15:05:31.220Z,20.30
2022-10-04T15:08:15.729Z,19.67
2022-10-04T15:10:50.917Z,19.51
2022-10-04T15:13:22.698Z,19.07
2022-10-04T15:16:00.528Z,19.17
2022-10-04T15:18:39.137Z,19.16
2022-10-04T15:21:13.549Z,19.21
2022-10-04T15:23:43.794Z,19.39
2022-10-04T15:26:43.581Z,19.62
2022-10-04T15:29:17.527Z,19.73
2022-10-04T15:32:04.277Z,19.73
2022-10-04T15:34:35.828Z,19.09
2022-10-04T15:37:25.636Z,18.66
2022-10-04T15:40:18.571Z,18.51
2022-10-04T15:43:18.292Z,18.54
2022-10-04T15:46:00.724Z,18.31
2022-10-04T15:48:41.413Z,18.47
2022-10-04T15:51:14.824Z,18.82
2022-10-04T15:53:54.943Z,18.92
2022-10-04T15:56:28.073Z,19.16
2022-10-04T15:59:39.130Z,18.73
2022-10-04T16:02:46.820Z,18.94
2022-10-04T16:05:20.288Z,18.98
2022-10-04T16:08:17.332Z,18.79
2022-10-04T16:10:58.682Z,18.96
2022-10-04T16:13:51.472Z,18.85
2022-10-04T16:16:50.205Z,18.86
2022-10-04T16:19:28.791Z,18.84
2022-10-04T16:22:15.825Z,19.02
2022-10-04T16:24:51.379Z,18.97
2022-10-04T16:27:47.613Z,18.94
2022-10-04T16:30:27.069Z,18.96
2022-10-04T16:33:07.907Z,19.08
2022-10-04T16:35:38.286Z,19.11
2022-10-04T16:38:18.928Z,19.13
2022-10-04T16:40:59.481Z,19.07
2022-10-04T16:43:32.325Z,19.01
2022-10-04T16:46:15.790Z,18.96
2022-10-04T16:48:53.684Z,18.89
2022-10-04T16:51:56.710Z,18.83
2022-10-04T16:55:01.105Z,18.75
2022-10-04T16:57:30.651Z,18.69
2022-10-04T17:00:06.853Z,18.61
2022-10-04T17:03:01.270Z,18.55
2022-10-04T17:05:48.211Z,18.46
2022-10-04T17:08:26.025Z,18.41
2022-10-04T17:11:40.457Z,18.34
2022-10-04T17:14:52.384Z,18.31
2022-10-04T17:17:34.813Z,18.28
2022-10-04T17:20:08.245Z,18.19
2022-10-04T17:22:43.653Z,18.09
2022-10-04T17:25:21.424Z,18.01
2022-10-04T17:27:53.038Z,17.93
2022-10-04T17:30:24.162Z,17.89
2022-10-04T17:33:08.681Z,17.81
2022-10-04T17:36:31.222Z,17.77
2022-10-04T17:39:05.764Z,17.76
2022-10-04T17:41:43.473Z,17.73
2022-10-04T17:44:37.509Z,17.72
2022-10-04T17:47:14.119Z,17.66
2022-10-04T17:50:11.088Z,17.61
2022-10-04T17:52:59.973Z,17.59
2022-10-04T17:55:31.417Z,17.55
2022-10-04T17:58:12.497Z,17.57
2022-10-04T18:00:57.241Z,17.56
2022-10-04T18:03:37.689Z,17.54
2022-10-04T18:06:31.121Z,17.41
2022-10-04T18:09:07.442Z,17.43
2022-10-04T18:11:47.917Z,17.43
2022-10-04T18:14:42.072Z,17.41
2022-10-04T18:17:28.966Z,17.31
2022-10-04T18:20:04.709Z,17.32
2022-10-04T18:22:34.961Z,17.30
2022-10-04T18:25:20.547Z,17.31
2022-10-04T18:28:02.293Z,17.27
2022-10-04T18:30:31.901Z,17.23
2022-10-04T18:33:07.632Z,17.22
2022-10-04T18:35:37.586Z,17.21
2022-10-04T18:38:27.323Z,17.17
2022-10-04T18:41:00.997Z,17.17
2022-10-04T18:43:44.861Z,17.14
2022-10-04T18:46:21.839Z,17.13
2022-10-04T18:49:02.034Z,17.09
2022-10-04T18:51:32.923Z,17.06
2022-10-04T18:54:11.333Z,16.97
2022-10-04T18:56:55.163Z,16.93
2022-10-04T18:59:51.529Z,16.93
2022-10-04T19:02:31.370Z,16.88
2022-10-04T19:05:05.045Z,16.84
2022-10-04T19:07:41.510Z,16.85
2022-10-04T19:10:23.660Z,16.82
2022-10-04T19:13:04.135Z,16.76
2022-10-04T19:16:01.573Z,16.73
2022-10-04T19:19:02.055Z,16.65
2022-10-04T19:21:36.825Z,16.66
2022-10-04T19:24:39.146Z,16.62
2022-10-04T19:27:11.712Z,16.55
2022-10-04T19:29:52.183Z,16.52
2022-10-04T19:32:26.752Z,16.46
2022-10-04T19:34:59.193Z,16.41
2022-10-04T19:37:29.377Z,16.38
2022-10-04T19:40:02.942Z,16.30
2022-10-04T19:42:36.645Z,16.26
2022-10-04T19:45:18.416Z,16.26
2022-10-04T19:47:50.327Z,16.22
2022-10-04T19:50:22.990Z,16.17
2022-10-04T19:52:58.687Z,16.13
2022-10-04T19:55:34.897Z,16.10
2022-10-04T19:58:09.481Z,16.03
2022-10-04T20:00:41.563Z,16.00
2022-10-04T20:03:13.166Z,15.95
2022-10-04T20:05:46.361Z,15.94
2022-10-04T20:08:16.131Z,15.91
2022-10-04T20:10:45.862Z,15.88
2022-10-04T20:13:21.342Z,15.83
2022-10-04T20:15:54.862Z,15.81
2022-10-04T20:19:09.696Z,15.76
2022-10-04T20:21:39.152Z,15.74
2022-10-04T20:24:17.892Z,15.74
2022-10-04T20:27:00.344Z,15.70
2022-10-04T20:30:04.412Z,15.68
2022-10-04T20:33:04.013Z,15.61
2022-10-04T20:36:09.205Z,15.57
2022-10-04T20:38:52.901Z,15.52
2022-10-04T20:42:13.260Z,15.47
2022-10-04T20:44:47.164Z,15.42
2022-10-04T20:47:24.011Z,15.37
2022-10-04T20:49:56.915Z,15.35
2022-10-04T20:52:26.481Z,15.35
2022-10-04T20:54:57.231Z,15.31
2022-10-04T20:57:26.704Z,15.29
2022-10-04T20:59:57.798Z,15.27
2022-10-04T21:02:28.815Z,15.22
2022-10-04T21:05:14.930Z,15.21
2022-10-04T21:07:44.413Z,15.16
2022-10-04T21:10:19.159Z,15.15
2022-10-04T21:12:49.585Z,15.10
2022-10-04T21:15:23.286Z,15.04
2022-10-04T21:18:03.136Z,15.01
2022-10-04T21:20:48.140Z,15.02
2022-10-04T21:23:24.140Z,15.01
2022-10-04T21:25:53.602Z,14.98
2022-10-04T21:28:38.708Z,14.99
2022-10-04T21:31:08.579Z,14.94
2022-10-04T21:33:38.339Z,14.93
2022-10-04T21:36:10.814Z,14.91
2022-10-04T21:38:40.251Z,14.85
2022-10-04T21:41:09.737Z,14.83
2022-10-04T21:43:39.206Z,14.79
2022-10-04T21:46:08.973Z,14.75
2022-10-04T21:48:38.640Z,14.72
2022-10-04T21:51:10.912Z,14.70
2022-10-04T21:53:40.369Z,14.72
2022-10-04T21:56:10.267Z,14.70
2022-10-04T21:58:39.718Z,14.70
2022-10-04T22:01:09.471Z,14.67
2022-10-04T22:03:38.989Z,14.69
2022-10-04T22:06:11.077Z,14.69
2022-10-04T22:08:40.537Z,14.68
2022-10-04T22:11:10.015Z,14.65
2022-10-04T22:13:39.467Z,14.64
2022-10-04T22:16:09.585Z,14.63
2022-10-04T22:18:39.134Z,14.66
2022-10-04T22:21:11.175Z,14.59
2022-10-04T22:23:42.083Z,14.55
2022-10-04T22:26:13.098Z,14.53
2022-10-04T22:28:45.072Z,14.51
2022-10-04T22:31:14.941Z,14.50
2022-10-04T22:33:45.084Z,14.49
2022-10-04T22:36:20.109Z,14.42
2022-10-04T22:38:51.844Z,14.40
2022-10-04T22:41:21.601Z,14.36
2022-10-04T22:43:52.088Z,14.35
2022-10-04T22:46:22.422Z,14.32
2022-10-04T22:48:51.954Z,14.31
2022-10-04T22:51:46.722Z,14.25
2022-10-04T22:54:18.146Z,14.27
2022-10-04T22:56:47.826Z,14.26
2022-10-04T22:59:19.513Z,14.23
2022-10-04T23:01:49.023Z,14.19
2022-10-04T23:04:21.717Z,14.17
2022-10-04T23:06:53.912Z,14.16
2022-10-04T23:09:23.522Z,14.15
2022-10-04T23:11:52.961Z,14.14
2022-10-04T23:14:22.423Z,14.13
2022-10-04T23:16:51.886Z,14.11
2022-10-04T23:19:21.589Z,14.08
2022-10-04T23:21:53.607Z,14.04
2022-10-04T23:24:23.717Z,14.01
2022-10-04T23:26:55.877Z,13.99
2022-10-04T23:29:27.169Z,13.99
2022-10-04T23:31:56.763Z,13.96
2022-10-04T23:34:29.534Z,13.97
2022-10-04T23:37:01.645Z,13.91
2022-10-04T23:39:32.688Z,13.94
2022-10-04T23:42:02.247Z,13.91
2022-10-04T23:44:35.526Z,13.88
2022-10-04T23:47:05.099Z,13.89
2022-10-04T23:49:34.568Z,13.86
2022-10-04T23:52:06.633Z,13.81
2022-10-04T23:54:36.131Z,13.77
2022-10-04T23:57:05.690Z,13.74
2022-10-04T23:59:35.161Z,13.69
